Aviation Digital Data Service (ADDS)

Output produced by METARs form (0018 UTC 23 September 2017)
found at http://aviationweather.gov/adds/metars/
 
KJST 222341Z 2300/2324 34005KT P6SM FEW250